sensor_id;sensor_type;location;lat;lon;timestamp;temperature;humidity
16251;DHT22;8233;50.650;6.832;2022-09-09T00:02:18;25.00;81.50
16251;DHT22;8233;50.650;6.832;2022-09-09T00:04:58;24.90;81.50
16251;DHT22;8233;50.650;6.832;2022-09-09T00:07:40;24.90;81.50
16251;DHT22;8233;50.650;6.832;2022-09-09T00:10:26;24.90;82.40
16251;DHT22;8233;50.650;6.832;2022-09-09T00:13:11;24.90;81.60
16251;DHT22;8233;50.650;6.832;2022-09-09T00:20:58;24.80;81.50
16251;DHT22;8233;50.650;6.832;2022-09-09T00:23:30;24.90;81.50
16251;DHT22;8233;50.650;6.832;2022-09-09T00:26:31;24.80;81.40
16251;DHT22;8233;50.650;6.832;2022-09-09T00:31:32;24.80;81.50
16251;DHT22;8233;50.650;6.832;2022-09-09T00:34:05;24.80;81.50
16251;DHT22;8233;50.650;6.832;2022-09-09T00:36:35;24.80;81.60
16251;DHT22;8233;50.650;6.832;2022-09-09T00:39:03;24.80;81.60
16251;DHT22;8233;50.650;6.832;2022-09-09T00:52:36;24.60;82.00
16251;DHT22;8233;50.650;6.832;2022-09-09T00:55:07;24.60;82.00
16251;DHT22;8233;50.650;6.832;2022-09-09T00:57:38;24.60;82.20
16251;DHT22;8233;50.650;6.832;2022-09-09T01:00:23;24.60;82.20
16251;DHT22;8233;50.650;6.832;2022-09-09T01:02:53;24.60;82.30
16251;DHT22;8233;50.650;6.832;2022-09-09T01:05:26;24.50;82.20
16251;DHT22;8233;50.650;6.832;2022-09-09T01:07:52;24.50;82.30
16251;DHT22;8233;50.650;6.832;2022-09-09T01:12:56;24.50;82.40
16251;DHT22;8233;50.650;6.832;2022-09-09T01:15:29;24.50;82.40
16251;DHT22;8233;50.650;6.832;2022-09-09T01:18:06;24.50;82.50
16251;DHT22;8233;50.650;6.832;2022-09-09T01:20:55;24.50;82.40
16251;DHT22;8233;50.650;6.832;2022-09-09T01:23:45;24.50;82.40
16251;DHT22;8233;50.650;6.832;2022-09-09T01:29:01;24.50;82.30
16251;DHT22;8233;50.650;6.832;2022-09-09T01:31:42;24.50;82.50
16251;DHT22;8233;50.650;6.832;2022-09-09T01:34:16;24.50;82.60
16251;DHT22;8233;50.650;6.832;2022-09-09T01:36:59;24.40;82.60
16251;DHT22;8233;50.650;6.832;2022-09-09T01:39:26;24.40;82.70
16251;DHT22;8233;50.650;6.832;2022-09-09T01:41:53;24.40;82.70
16251;DHT22;8233;50.650;6.832;2022-09-09T01:44:19;24.40;82.70
16251;DHT22;8233;50.650;6.832;2022-09-09T01:46:45;24.40;82.60
16251;DHT22;8233;50.650;6.832;2022-09-09T01:49:10;24.40;82.70
16251;DHT22;8233;50.650;6.832;2022-09-09T01:51:37;24.40;82.80
16251;DHT22;8233;50.650;6.832;2022-09-09T01:54:05;24.40;82.80
16251;DHT22;8233;50.650;6.832;2022-09-09T01:56:43;24.40;82.80
16251;DHT22;8233;50.650;6.832;2022-09-09T02:04:45;24.30;83.10
16251;DHT22;8233;50.650;6.832;2022-09-09T02:10:33;24.30;83.00
16251;DHT22;8233;50.650;6.832;2022-09-09T02:13:10;24.30;83.00
16251;DHT22;8233;50.650;6.832;2022-09-09T02:18:08;24.30;83.10
16251;DHT22;8233;50.650;6.832;2022-09-09T02:20:39;24.30;83.10
16251;DHT22;8233;50.650;6.832;2022-09-09T02:23:06;24.30;83.30
16251;DHT22;8233;50.650;6.832;2022-09-09T02:25:35;24.30;83.20
16251;DHT22;8233;50.650;6.832;2022-09-09T02:28:03;24.30;83.10
16251;DHT22;8233;50.650;6.832;2022-09-09T02:30:30;24.30;83.30
16251;DHT22;8233;50.650;6.832;2022-09-09T02:32:58;24.20;83.20
16251;DHT22;8233;50.650;6.832;2022-09-09T02:35:28;24.30;83.30
16251;DHT22;8233;50.650;6.832;2022-09-09T02:38:00;24.20;83.30
16251;DHT22;8233;50.650;6.832;2022-09-09T02:40:27;24.20;83.30
16251;DHT22;8233;50.650;6.832;2022-09-09T02:42:54;24.20;83.20
16251;DHT22;8233;50.650;6.832;2022-09-09T02:45:24;24.30;83.30
16251;DHT22;8233;50.650;6.832;2022-09-09T02:48:10;24.30;83.30
16251;DHT22;8233;50.650;6.832;2022-09-09T02:55:41;24.20;83.20
16251;DHT22;8233;50.650;6.832;2022-09-09T02:58:12;24.20;83.30
16251;DHT22;8233;50.650;6.832;2022-09-09T03:00:44;24.20;83.40
16251;DHT22;8233;50.650;6.832;2022-09-09T03:03:11;24.20;83.30
16251;DHT22;8233;50.650;6.832;2022-09-09T03:05:37;24.10;83.40
16251;DHT22;8233;50.650;6.832;2022-09-09T03:08:04;24.10;83.40
16251;DHT22;8233;50.650;6.832;2022-09-09T03:10:31;24.10;83.50
16251;DHT22;8233;50.650;6.832;2022-09-09T03:12:57;24.10;83.50
16251;DHT22;8233;50.650;6.832;2022-09-09T03:15:22;24.10;83.60
16251;DHT22;8233;50.650;6.832;2022-09-09T03:17:48;24.00;83.70
16251;DHT22;8233;50.650;6.832;2022-09-09T03:20:14;24.00;83.60
16251;DHT22;8233;50.650;6.832;2022-09-09T03:22:40;24.00;83.60
16251;DHT22;8233;50.650;6.832;2022-09-09T03:25:06;24.00;83.50
16251;DHT22;8233;50.650;6.832;2022-09-09T03:27:32;24.10;83.70
16251;DHT22;8233;50.650;6.832;2022-09-09T03:29:58;24.00;83.60
16251;DHT22;8233;50.650;6.832;2022-09-09T03:32:24;24.00;83.60
16251;DHT22;8233;50.650;6.832;2022-09-09T03:34:51;24.00;83.70
16251;DHT22;8233;50.650;6.832;2022-09-09T03:37:18;24.00;83.60
16251;DHT22;8233;50.650;6.832;2022-09-09T03:39:44;24.10;83.70
16251;DHT22;8233;50.650;6.832;2022-09-09T03:42:12;24.00;83.70
16251;DHT22;8233;50.650;6.832;2022-09-09T03:44:40;24.00;83.70
16251;DHT22;8233;50.650;6.832;2022-09-09T03:47:06;24.00;83.70
16251;DHT22;8233;50.650;6.832;2022-09-09T03:49:32;24.00;83.80
16251;DHT22;8233;50.650;6.832;2022-09-09T03:51:57;24.00;83.70
16251;DHT22;8233;50.650;6.832;2022-09-09T03:54:25;24.00;83.70
16251;DHT22;8233;50.650;6.832;2022-09-09T03:56:51;24.00;83.80
16251;DHT22;8233;50.650;6.832;2022-09-09T03:59:16;24.10;83.80
16251;DHT22;8233;50.650;6.832;2022-09-09T04:01:42;24.00;83.80
16251;DHT22;8233;50.650;6.832;2022-09-09T04:04:08;24.00;83.80
16251;DHT22;8233;50.650;6.832;2022-09-09T04:06:35;24.00;83.80
16251;DHT22;8233;50.650;6.832;2022-09-09T04:09:00;24.00;83.80
16251;DHT22;8233;50.650;6.832;2022-09-09T04:11:28;24.00;83.80
16251;DHT22;8233;50.650;6.832;2022-09-09T04:13:53;24.00;83.80
16251;DHT22;8233;50.650;6.832;2022-09-09T04:16:19;24.00;83.70
16251;DHT22;8233;50.650;6.832;2022-09-09T04:18:45;24.00;83.80
16251;DHT22;8233;50.650;6.832;2022-09-09T04:21:11;24.00;83.80
16251;DHT22;8233;50.650;6.832;2022-09-09T04:23:38;24.00;83.80
16251;DHT22;8233;50.650;6.832;2022-09-09T04:26:04;24.00;83.70
16251;DHT22;8233;50.650;6.832;2022-09-09T04:28:32;24.00;83.80
16251;DHT22;8233;50.650;6.832;2022-09-09T04:31:08;24.00;83.80
16251;DHT22;8233;50.650;6.832;2022-09-09T04:33:34;24.00;83.80
16251;DHT22;8233;50.650;6.832;2022-09-09T04:36:00;23.90;83.70
16251;DHT22;8233;50.650;6.832;2022-09-09T04:38:26;24.00;83.70
16251;DHT22;8233;50.650;6.832;2022-09-09T04:40:52;23.90;83.70
16251;DHT22;8233;50.650;6.832;2022-09-09T04:43:19;23.90;83.80
16251;DHT22;8233;50.650;6.832;2022-09-09T04:45:47;23.90;83.70
16251;DHT22;8233;50.650;6.832;2022-09-09T04:48:13;23.90;83.60
16251;DHT22;8233;50.650;6.832;2022-09-09T04:50:40;23.80;83.70
16251;DHT22;8233;50.650;6.832;2022-09-09T04:53:06;24.00;83.60
16251;DHT22;8233;50.650;6.832;2022-09-09T04:55:32;23.90;83.80
16251;DHT22;8233;50.650;6.832;2022-09-09T04:58:07;23.90;83.80
16251;DHT22;8233;50.650;6.832;2022-09-09T05:00:34;23.90;83.80
16251;DHT22;8233;50.650;6.832;2022-09-09T05:03:09;24.00;83.50
16251;DHT22;8233;50.650;6.832;2022-09-09T05:05:35;24.20;83.20
16251;DHT22;8233;50.650;6.832;2022-09-09T05:08:03;24.20;83.20
16251;DHT22;8233;50.650;6.832;2022-09-09T05:10:29;24.20;83.70
16251;DHT22;8233;50.650;6.832;2022-09-09T05:12:54;24.20;83.70
16251;DHT22;8233;50.650;6.832;2022-09-09T05:15:20;24.30;84.20
16251;DHT22;8233;50.650;6.832;2022-09-09T05:17:46;24.50;83.90
16251;DHT22;8233;50.650;6.832;2022-09-09T05:20:12;24.60;83.80
16251;DHT22;8233;50.650;6.832;2022-09-09T05:22:39;24.50;83.50
16251;DHT22;8233;50.650;6.832;2022-09-09T05:25:06;24.50;83.40
16251;DHT22;8233;50.650;6.832;2022-09-09T05:27:34;24.50;83.50
16251;DHT22;8233;50.650;6.832;2022-09-09T05:29:59;24.50;83.50
16251;DHT22;8233;50.650;6.832;2022-09-09T05:32:25;24.50;83.30
16251;DHT22;8233;50.650;6.832;2022-09-09T05:34:51;24.50;83.10
16251;DHT22;8233;50.650;6.832;2022-09-09T05:37:18;24.50;83.00
16251;DHT22;8233;50.650;6.832;2022-09-09T05:39:44;24.50;83.00
16251;DHT22;8233;50.650;6.832;2022-09-09T05:42:09;24.50;83.00
16251;DHT22;8233;50.650;6.832;2022-09-09T05:44:35;24.50;82.80
16251;DHT22;8233;50.650;6.832;2022-09-09T05:47:01;24.50;82.80
16251;DHT22;8233;50.650;6.832;2022-09-09T05:49:27;24.50;82.80
16251;DHT22;8233;50.650;6.832;2022-09-09T05:51:52;24.50;82.80
16251;DHT22;8233;50.650;6.832;2022-09-09T05:54:19;24.50;82.80
16251;DHT22;8233;50.650;6.832;2022-09-09T05:56:44;24.50;82.70
16251;DHT22;8233;50.650;6.832;2022-09-09T05:59:10;24.50;82.70
16251;DHT22;8233;50.650;6.832;2022-09-09T06:01:37;24.50;82.70
16251;DHT22;8233;50.650;6.832;2022-09-09T06:04:06;24.50;82.80
16251;DHT22;8233;50.650;6.832;2022-09-09T06:06:34;24.50;82.70
16251;DHT22;8233;50.650;6.832;2022-09-09T06:09:03;24.50;82.70
16251;DHT22;8233;50.650;6.832;2022-09-09T06:11:33;24.50;82.70
16251;DHT22;8233;50.650;6.832;2022-09-09T06:14:01;24.50;82.70
16251;DHT22;8233;50.650;6.832;2022-09-09T06:16:28;24.50;82.70
16251;DHT22;8233;50.650;6.832;2022-09-09T06:18:55;24.50;82.60
16251;DHT22;8233;50.650;6.832;2022-09-09T06:21:27;24.50;82.70
16251;DHT22;8233;50.650;6.832;2022-09-09T06:23:53;24.50;82.50
16251;DHT22;8233;50.650;6.832;2022-09-09T06:26:20;24.50;82.30
16251;DHT22;8233;50.650;6.832;2022-09-09T06:28:47;24.50;82.20
16251;DHT22;8233;50.650;6.832;2022-09-09T06:31:15;24.50;82.20
16251;DHT22;8233;50.650;6.832;2022-09-09T06:33:48;24.60;82.20
16251;DHT22;8233;50.650;6.832;2022-09-09T06:36:23;24.60;82.20
16251;DHT22;8233;50.650;6.832;2022-09-09T06:38:49;24.60;82.10
16251;DHT22;8233;50.650;6.832;2022-09-09T06:41:17;24.60;82.00
16251;DHT22;8233;50.650;6.832;2022-09-09T06:43:44;24.60;82.20
16251;DHT22;8233;50.650;6.832;2022-09-09T06:46:30;24.60;82.00
16251;DHT22;8233;50.650;6.832;2022-09-09T06:48:58;24.60;81.60
16251;DHT22;8233;50.650;6.832;2022-09-09T06:51:30;24.60;82.40
16251;DHT22;8233;50.650;6.832;2022-09-09T06:53:58;24.60;81.70
16251;DHT22;8233;50.650;6.832;2022-09-09T06:58:55;24.60;81.70
16251;DHT22;8233;50.650;6.832;2022-09-09T07:01:23;24.60;81.90
16251;DHT22;8233;50.650;6.832;2022-09-09T07:03:51;24.60;81.70
16251;DHT22;8233;50.650;6.832;2022-09-09T07:06:22;24.60;81.50
16251;DHT22;8233;50.650;6.832;2022-09-09T07:08:53;24.60;81.50
16251;DHT22;8233;50.650;6.832;2022-09-09T07:11:21;24.60;81.50
16251;DHT22;8233;50.650;6.832;2022-09-09T07:13:48;24.60;81.50
16251;DHT22;8233;50.650;6.832;2022-09-09T07:16:16;24.60;81.50
16251;DHT22;8233;50.650;6.832;2022-09-09T07:18:43;24.60;81.40
16251;DHT22;8233;50.650;6.832;2022-09-09T07:21:12;24.60;83.50
16251;DHT22;8233;50.650;6.832;2022-09-09T07:23:40;24.80;81.10
16251;DHT22;8233;50.650;6.832;2022-09-09T07:26:14;25.00;80.90
16251;DHT22;8233;50.650;6.832;2022-09-09T07:28:41;25.10;80.30
16251;DHT22;8233;50.650;6.832;2022-09-09T07:31:13;25.10;80.10
16251;DHT22;8233;50.650;6.832;2022-09-09T07:33:42;25.30;80.20
16251;DHT22;8233;50.650;6.832;2022-09-09T07:36:40;25.30;79.60
16251;DHT22;8233;50.650;6.832;2022-09-09T07:39:06;25.40;79.70
16251;DHT22;8233;50.650;6.832;2022-09-09T07:41:37;25.50;79.50
16251;DHT22;8233;50.650;6.832;2022-09-09T07:44:08;25.50;79.50
16251;DHT22;8233;50.650;6.832;2022-09-09T07:46:37;25.50;78.90
16251;DHT22;8233;50.650;6.832;2022-09-09T07:49:05;25.60;78.90
16251;DHT22;8233;50.650;6.832;2022-09-09T07:51:37;25.70;78.40
16251;DHT22;8233;50.650;6.832;2022-09-09T07:54:05;25.80;78.00
16251;DHT22;8233;50.650;6.832;2022-09-09T07:56:32;25.80;77.70
16251;DHT22;8233;50.650;6.832;2022-09-09T07:58:59;25.80;77.60
16251;DHT22;8233;50.650;6.832;2022-09-09T08:01:39;25.90;78.00
16251;DHT22;8233;50.650;6.832;2022-09-09T08:04:12;25.80;78.00
16251;DHT22;8233;50.650;6.832;2022-09-09T08:07:02;25.80;78.40
16251;DHT22;8233;50.650;6.832;2022-09-09T08:09:29;25.90;79.00
16251;DHT22;8233;50.650;6.832;2022-09-09T08:11:56;25.90;78.60
16251;DHT22;8233;50.650;6.832;2022-09-09T08:14:23;26.00;78.40
16251;DHT22;8233;50.650;6.832;2022-09-09T08:16:50;26.00;78.20
16251;DHT22;8233;50.650;6.832;2022-09-09T08:19:16;26.10;78.50
16251;DHT22;8233;50.650;6.832;2022-09-09T08:21:43;26.10;78.00
16251;DHT22;8233;50.650;6.832;2022-09-09T08:24:10;26.10;78.60
16251;DHT22;8233;50.650;6.832;2022-09-09T08:26:40;26.20;78.40
16251;DHT22;8233;50.650;6.832;2022-09-09T08:29:11;26.20;78.30
16251;DHT22;8233;50.650;6.832;2022-09-09T08:31:40;26.30;78.30
16251;DHT22;8233;50.650;6.832;2022-09-09T08:34:07;26.30;78.10
16251;DHT22;8233;50.650;6.832;2022-09-09T08:36:37;26.40;78.40
16251;DHT22;8233;50.650;6.832;2022-09-09T08:39:07;26.40;78.40
16251;DHT22;8233;50.650;6.832;2022-09-09T09:03:55;26.60;78.50
16251;DHT22;8233;50.650;6.832;2022-09-09T09:11:49;26.70;78.20
16251;DHT22;8233;50.650;6.832;2022-09-09T09:14:23;26.60;78.10
16251;DHT22;8233;50.650;6.832;2022-09-09T09:17:01;26.60;78.10
16251;DHT22;8233;50.650;6.832;2022-09-09T09:19:30;26.60;78.30
16251;DHT22;8233;50.650;6.832;2022-09-09T09:22:19;26.60;78.30
16251;DHT22;8233;50.650;6.832;2022-09-09T09:25:39;26.60;78.10
16251;DHT22;8233;50.650;6.832;2022-09-09T09:28:13;26.60;78.10
16251;DHT22;8233;50.650;6.832;2022-09-09T09:31:09;26.60;77.90
16251;DHT22;8233;50.650;6.832;2022-09-09T09:33:50;26.60;78.00
16251;DHT22;8233;50.650;6.832;2022-09-09T09:36:18;26.50;78.00
16251;DHT22;8233;50.650;6.832;2022-09-09T09:38:55;26.50;78.00
16251;DHT22;8233;50.650;6.832;2022-09-09T09:41:36;26.50;78.00
16251;DHT22;8233;50.650;6.832;2022-09-09T09:44:05;26.50;77.90
16251;DHT22;8233;50.650;6.832;2022-09-09T09:46:31;26.50;78.00
16251;DHT22;8233;50.650;6.832;2022-09-09T09:49:01;26.50;77.90
16251;DHT22;8233;50.650;6.832;2022-09-09T09:51:30;26.50;78.00
16251;DHT22;8233;50.650;6.832;2022-09-09T09:56:44;26.50;77.80
16251;DHT22;8233;50.650;6.832;2022-09-09T09:59:33;26.60;78.10
16251;DHT22;8233;50.650;6.832;2022-09-09T10:02:26;26.60;77.70
16251;DHT22;8233;50.650;6.832;2022-09-09T10:05:21;26.60;78.40
16251;DHT22;8233;50.650;6.832;2022-09-09T10:07:59;26.70;78.00
16251;DHT22;8233;50.650;6.832;2022-09-09T10:10:41;26.60;77.90
16251;DHT22;8233;50.650;6.832;2022-09-09T10:13:40;26.70;78.00
16251;DHT22;8233;50.650;6.832;2022-09-09T10:21:11;26.70;78.10
16251;DHT22;8233;50.650;6.832;2022-09-09T10:38:20;26.40;73.30
16251;DHT22;8233;50.650;6.832;2022-09-09T10:52:05;26.10;75.60
16251;DHT22;8233;50.650;6.832;2022-09-09T10:55:13;26.20;75.30
16251;DHT22;8233;50.650;6.832;2022-09-09T10:57:48;26.10;76.20
16251;DHT22;8233;50.650;6.832;2022-09-09T11:02:56;26.20;76.40
16251;DHT22;8233;50.650;6.832;2022-09-09T11:05:43;26.30;76.20
16251;DHT22;8233;50.650;6.832;2022-09-09T11:08:12;26.30;75.80
16251;DHT22;8233;50.650;6.832;2022-09-09T11:10:51;26.30;75.80
16251;DHT22;8233;50.650;6.832;2022-09-09T11:21:49;26.60;76.00
16251;DHT22;8233;50.650;6.832;2022-09-09T11:24:39;26.60;75.80
16251;DHT22;8233;50.650;6.832;2022-09-09T11:27:31;26.60;75.80
16251;DHT22;8233;50.650;6.832;2022-09-09T11:30:18;26.60;75.80
